Time;durP1;ratioP1;P1;durP2;ratioP2;P2;SDS_P1;SDS_P2;PMS_P1;PMS_P2;Temp;Humidity;BMP_temperature;BMP_pressure;BME280_temperature;BME280_humidity;BME280_pressure;Samples;Min_cycle;Max_cycle;Signal;HPM_P1;HPM_P2
2022/04/14 00:01:34;;;;;;;8.18;2.92;;;;;;;;;;5048731;28;20114;-66
2022/04/14 00:04:00;;;;;;;8.15;3.08;;;;;;;;;;5048259;28;20048;-66
2022/04/14 00:06:26;;;;;;;4.95;3.40;;;;;;;;;;5048693;28;20052;-66
2022/04/14 00:08:52;;;;;;;8.30;3.20;;;;;;;;;;5048386;28;20052;-66
2022/04/14 00:11:19;;;;;;;5.43;3.10;;;;;;;;;;5030011;28;20110;-66
2022/04/14 00:13:45;;;;;;;6.60;3.10;;;;;;;;;;5048436;28;20052;-66
2022/04/14 00:16:11;;;;;;;4.70;2.95;;;;;;;;;;5048057;28;20371;-66
2022/04/14 00:18:37;;;;;;;8.40;3.60;;;;;;;;;;5048582;28;20155;-66
2022/04/14 00:21:03;;;;;;;6.65;2.83;;;;;;;;;;5047750;28;20048;-66
2022/04/14 00:23:29;;;;;;;6.65;3.38;;;;;;;;;;5048093;28;20048;-66
2022/04/14 00:25:55;;;;;;;6.22;3.33;;;;;;;;;;5048178;28;20430;-67
2022/04/14 00:28:21;;;;;;;5.63;3.30;;;;;;;;;;5048069;28;20041;-67
2022/04/14 00:30:47;;;;;;;5.47;3.33;;;;;;;;;;5047937;28;20272;-67
2022/04/14 00:33:13;;;;;;;5.90;3.33;;;;;;;;;;5047365;28;20053;-66
2022/04/14 00:35:39;;;;;;;5.53;3.13;;;;;;;;;;5047448;28;20226;-66
2022/04/14 00:38:05;;;;;;;5.40;3.40;;;;;;;;;;5047715;28;20053;-66
2022/04/14 00:40:32;;;;;;;6.30;3.47;;;;;;;;;;5048224;28;20521;-66
2022/04/14 00:42:58;;;;;;;6.82;3.45;;;;;;;;;;5047668;28;20094;-67
2022/04/14 00:45:24;;;;;;;5.78;3.95;;;;;;;;;;5047919;28;20049;-67
2022/04/14 00:47:51;;;;;;;6.03;3.22;;;;;;;;;;5047196;28;20411;-67
2022/04/14 00:50:18;;;;;;;6.45;3.65;;;;;;;;;;5047774;28;20037;-67
2022/04/14 00:52:47;;;;;;;7.50;3.50;;;;;;;;;;5051478;28;20045;-68
2022/04/14 00:55:14;;;;;;;8.20;3.67;;;;;;;;;;5051459;28;20424;-66
2022/04/14 00:57:40;;;;;;;7.43;3.97;;;;;;;;;;5052150;28;20086;-66
2022/04/14 01:00:07;;;;;;;10.77;4.05;;;;;;;;;;5051978;28;20045;-65
2022/04/14 01:02:33;;;;;;;6.13;3.47;;;;;;;;;;5052029;28;20052;-66
2022/04/14 01:05:00;;;;;;;5.25;3.25;;;;;;;;;;5051712;28;20049;-66
2022/04/14 01:07:27;;;;;;;5.57;3.60;;;;;;;;;;5051336;28;20123;-66
2022/04/14 01:09:53;;;;;;;5.63;3.90;;;;;;;;;;5033915;28;20048;-66
2022/04/14 01:12:20;;;;;;;7.78;3.90;;;;;;;;;;5051986;28;20045;-66
2022/04/14 01:14:46;;;;;;;8.68;4.00;;;;;;;;;;5051395;28;20061;-66
2022/04/14 01:17:12;;;;;;;5.45;3.83;;;;;;;;;;5051641;28;20045;-66
2022/04/14 01:19:38;;;;;;;6.07;3.72;;;;;;;;;;5051900;28;20163;-66
2022/04/14 01:22:15;;;;;;;8.15;4.00;;;;;;;;;;5050882;28;20361;-66
2022/04/14 01:24:41;;;;;;;6.47;3.95;;;;;;;;;;5033603;28;20041;-67
2022/04/14 01:27:08;;;;;;;5.75;3.38;;;;;;;;;;5051330;28;20175;-66
2022/04/14 01:29:34;;;;;;;5.93;4.05;;;;;;;;;;5051615;28;20434;-66
2022/04/14 01:32:02;;;;;;;7.05;4.10;;;;;;;;;;5051262;28;20049;-67
2022/04/14 01:34:31;;;;;;;8.35;3.85;;;;;;;;;;5051276;28;20045;-67
2022/04/14 01:37:00;;;;;;;7.07;3.75;;;;;;;;;;5051021;28;20111;-67
2022/04/14 01:39:29;;;;;;;6.25;3.92;;;;;;;;;;5051045;28;20311;-67
2022/04/14 01:41:55;;;;;;;5.90;3.80;;;;;;;;;;5051088;28;20402;-67
2022/04/14 01:44:21;;;;;;;8.50;4.35;;;;;;;;;;5051215;28;20069;-67
2022/04/14 01:46:48;;;;;;;5.95;4.18;;;;;;;;;;5051014;28;20391;-67
2022/04/14 01:49:14;;;;;;;5.32;4.30;;;;;;;;;;5051383;28;20103;-67
2022/04/14 01:51:40;;;;;;;7.13;4.50;;;;;;;;;;5051111;28;20124;-67
2022/04/14 01:54:06;;;;;;;6.93;3.88;;;;;;;;;;5050316;28;20045;-67
2022/04/14 01:56:32;;;;;;;7.70;4.35;;;;;;;;;;5050825;28;20502;-66
2022/04/14 01:58:59;;;;;;;6.53;4.22;;;;;;;;;;5050356;28;20045;-66
2022/04/14 02:01:25;;;;;;;5.85;4.07;;;;;;;;;;5050807;28;20052;-67
2022/04/14 02:03:51;;;;;;;6.60;4.32;;;;;;;;;;5049228;28;20045;-67
2022/04/14 02:06:18;;;;;;;7.53;4.45;;;;;;;;;;5050374;28;20144;-66
2022/04/14 02:08:44;;;;;;;5.70;4.00;;;;;;;;;;5050784;28;20044;-66
2022/04/14 02:11:10;;;;;;;6.85;4.50;;;;;;;;;;5050514;28;20234;-67
2022/04/14 02:13:37;;;;;;;6.88;4.53;;;;;;;;;;5050259;28;20076;-67
2022/04/14 02:16:03;;;;;;;5.80;4.38;;;;;;;;;;5050523;28;20084;-67
2022/04/14 02:18:29;;;;;;;6.78;4.85;;;;;;;;;;5050292;28;20059;-67
2022/04/14 02:20:55;;;;;;;6.53;4.47;;;;;;;;;;5049973;28;20155;-67
2022/04/14 02:23:21;;;;;;;6.88;4.43;;;;;;;;;;5050381;28;20080;-66
2022/04/14 02:25:47;;;;;;;8.13;4.85;;;;;;;;;;5050279;28;20036;-68
2022/04/14 02:28:14;;;;;;;7.25;4.60;;;;;;;;;;5050455;28;20044;-68
2022/04/14 02:30:40;;;;;;;6.78;4.53;;;;;;;;;;5049934;28;20523;-68
2022/04/14 02:33:06;;;;;;;6.97;4.75;;;;;;;;;;5050173;28;20045;-67
2022/04/14 02:35:32;;;;;;;6.15;4.35;;;;;;;;;;5050223;28;20537;-67
2022/04/14 02:37:58;;;;;;;6.47;4.55;;;;;;;;;;5049805;28;20041;-68
2022/04/14 02:40:25;;;;;;;9.52;4.18;;;;;;;;;;5050317;28;20055;-67
2022/04/14 02:42:53;;;;;;;7.20;3.97;;;;;;;;;;5049937;28;20475;-66
2022/04/14 02:45:20;;;;;;;9.65;4.30;;;;;;;;;;5049966;28;20053;-67
2022/04/14 02:47:46;;;;;;;6.72;4.50;;;;;;;;;;5049442;28;20642;-66
2022/04/14 02:50:12;;;;;;;7.50;4.47;;;;;;;;;;5049590;28;20415;-66
2022/04/14 02:52:38;;;;;;;9.48;4.50;;;;;;;;;;5050201;28;20099;-66
2022/04/14 02:55:04;;;;;;;7.88;4.75;;;;;;;;;;5049845;28;20159;-66
2022/04/14 02:57:30;;;;;;;8.80;5.10;;;;;;;;;;5049383;28;20495;-66
2022/04/14 02:59:57;;;;;;;8.57;5.13;;;;;;;;;;5049830;28;20470;-66
2022/04/14 03:02:23;;;;;;;6.90;4.43;;;;;;;;;;5050077;28;20055;-66
2022/04/14 03:04:49;;;;;;;9.13;5.50;;;;;;;;;;5049206;28;20423;-66
2022/04/14 03:07:15;;;;;;;7.15;5.05;;;;;;;;;;5048556;28;20041;-66
2022/04/14 03:09:41;;;;;;;8.25;5.07;;;;;;;;;;5049119;28;20130;-66
2022/04/14 03:12:08;;;;;;;10.63;5.68;;;;;;;;;;5048699;28;20044;-66
2022/04/14 03:14:34;;;;;;;8.48;5.43;;;;;;;;;;5048031;28;20052;-66
2022/04/14 03:17:00;;;;;;;8.85;5.45;;;;;;;;;;5048468;28;20045;-66
2022/04/14 03:19:26;;;;;;;8.55;5.22;;;;;;;;;;5048805;28;20045;-66
2022/04/14 03:21:52;;;;;;;9.73;5.57;;;;;;;;;;5048335;28;20051;-67
2022/04/14 03:24:18;;;;;;;8.43;5.20;;;;;;;;;;5048485;28;20045;-67
2022/04/14 03:26:44;;;;;;;8.15;5.40;;;;;;;;;;5048204;28;20151;-66
2022/04/14 03:29:10;;;;;;;7.93;5.50;;;;;;;;;;5048209;28;20091;-66
2022/04/14 03:31:37;;;;;;;7.47;5.28;;;;;;;;;;5048381;28;20048;-66
2022/04/14 03:34:03;;;;;;;8.65;5.38;;;;;;;;;;5047966;28;20163;-67
2022/04/14 03:36:29;;;;;;;9.25;5.70;;;;;;;;;;5048442;28;20384;-67
2022/04/14 03:38:55;;;;;;;9.18;6.15;;;;;;;;;;5048038;28;20518;-66
2022/04/14 03:41:21;;;;;;;8.15;5.72;;;;;;;;;;5048224;28;20045;-65
2022/04/14 03:43:47;;;;;;;8.52;5.25;;;;;;;;;;5048203;28;20076;-66
2022/04/14 03:46:15;;;;;;;8.70;6.03;;;;;;;;;;5048096;28;20840;-66
2022/04/14 03:48:42;;;;;;;9.88;6.03;;;;;;;;;;5048473;28;20045;-66
2022/04/14 03:51:09;;;;;;;9.38;6.38;;;;;;;;;;5048351;28;20052;-66
2022/04/14 03:53:35;;;;;;;10.18;6.18;;;;;;;;;;5047474;28;20081;-66
2022/04/14 03:56:02;;;;;;;7.30;5.45;;;;;;;;;;5048060;28;20103;-67
2022/04/14 03:58:28;;;;;;;8.30;6.00;;;;;;;;;;5048248;28;20041;-66
2022/04/14 04:00:54;;;;;;;9.38;6.03;;;;;;;;;;5047773;28;20134;-67
2022/04/14 04:03:20;;;;;;;11.23;6.97;;;;;;;;;;5048393;28;20494;-66
2022/04/14 04:05:46;;;;;;;8.40;6.40;;;;;;;;;;5047581;28;20055;-66
2022/04/14 04:08:12;;;;;;;9.30;5.95;;;;;;;;;;5047859;28;20419;-66
2022/04/14 04:10:38;;;;;;;8.38;6.38;;;;;;;;;;5047458;28;20456;-66
2022/04/14 04:13:04;;;;;;;8.40;6.30;;;;;;;;;;5048099;28;20103;-66
2022/04/14 04:15:30;;;;;;;7.93;6.18;;;;;;;;;;5029755;28;20057;-66
2022/04/14 04:17:56;;;;;;;8.07;6.65;;;;;;;;;;5030221;28;20045;-66
2022/04/14 04:20:22;;;;;;;10.77;6.88;;;;;;;;;;5047991;28;20047;-66
2022/04/14 04:22:48;;;;;;;7.88;6.28;;;;;;;;;;5047545;28;20045;-66
2022/04/14 04:25:14;;;;;;;9.35;6.82;;;;;;;;;;5046752;28;20049;-66
2022/04/14 04:27:40;;;;;;;9.52;6.18;;;;;;;;;;5047660;28;20049;-66
2022/04/14 04:30:07;;;;;;;9.77;6.80;;;;;;;;;;5048008;28;20053;-66
2022/04/14 04:32:33;;;;;;;8.80;6.88;;;;;;;;;;5047719;28;20049;-66
2022/04/14 04:35:00;;;;;;;10.13;6.97;;;;;;;;;;5047041;28;20041;-66
2022/04/14 04:37:26;;;;;;;8.77;6.70;;;;;;;;;;5047373;28;20045;-66
2022/04/14 04:39:52;;;;;;;10.45;6.45;;;;;;;;;;5046831;28;20084;-66
2022/04/14 04:42:18;;;;;;;9.52;6.38;;;;;;;;;;5047369;28;20099;-65
2022/04/14 04:44:44;;;;;;;9.13;7.35;;;;;;;;;;5047528;28;20116;-66
2022/04/14 04:47:10;;;;;;;10.13;6.70;;;;;;;;;;5046359;28;20049;-66
2022/04/14 04:49:36;;;;;;;9.75;7.40;;;;;;;;;;5047392;28;20049;-66
2022/04/14 04:52:02;;;;;;;10.23;7.45;;;;;;;;;;5047215;28;20114;-65
2022/04/14 04:54:28;;;;;;;9.02;6.72;;;;;;;;;;5058807;28;20041;-66
2022/04/14 04:56:54;;;;;;;10.45;7.43;;;;;;;;;;5067027;28;20055;-66
2022/04/14 04:59:20;;;;;;;9.18;7.18;;;;;;;;;;5067908;28;20040;-65
2022/04/14 05:01:46;;;;;;;9.38;7.30;;;;;;;;;;5062317;28;20037;-66
2022/04/14 05:04:12;;;;;;;10.90;7.72;;;;;;;;;;5047684;28;20140;-66
2022/04/14 05:06:39;;;;;;;10.38;7.50;;;;;;;;;;5047666;28;20124;-66
2022/04/14 05:09:05;;;;;;;9.73;7.20;;;;;;;;;;5048251;28;20045;-66
2022/04/14 05:11:31;;;;;;;8.73;7.65;;;;;;;;;;5048202;28;20144;-66
2022/04/14 05:13:57;;;;;;;9.80;7.60;;;;;;;;;;5029905;28;20053;-66
2022/04/14 05:16:23;;;;;;;10.02;7.57;;;;;;;;;;5047774;28;20045;-66
2022/04/14 05:18:50;;;;;;;9.98;7.05;;;;;;;;;;5048310;28;20131;-67
2022/04/14 05:21:16;;;;;;;9.68;7.35;;;;;;;;;;5029899;28;20049;-67
2022/04/14 05:23:42;;;;;;;10.35;7.18;;;;;;;;;;5047306;28;20103;-66
2022/04/14 05:26:09;;;;;;;10.20;7.00;;;;;;;;;;5029968;28;20049;-66
2022/04/14 05:28:35;;;;;;;10.73;6.95;;;;;;;;;;5048213;28;20037;-66
2022/04/14 05:31:02;;;;;;;9.30;7.45;;;;;;;;;;5047930;28;20602;-66
2022/04/14 05:33:28;;;;;;;10.27;7.40;;;;;;;;;;5048104;28;20037;-66
2022/04/14 05:35:54;;;;;;;9.75;7.20;;;;;;;;;;5046846;28;20142;-67
2022/04/14 05:38:20;;;;;;;10.98;7.20;;;;;;;;;;5051060;28;20045;-67
2022/04/14 05:40:46;;;;;;;9.02;7.03;;;;;;;;;;5051322;28;20484;-67
2022/04/14 05:43:19;;;;;;;8.45;6.80;;;;;;;;;;5051298;28;20510;-67
2022/04/14 05:45:48;;;;;;;9.82;7.40;;;;;;;;;;5051470;28;20178;-67
2022/04/14 05:48:15;;;;;;;10.88;7.57;;;;;;;;;;5051402;28;20106;-68
2022/04/14 05:50:44;;;;;;;10.90;8.15;;;;;;;;;;5051497;28;20068;-67
2022/04/14 05:53:11;;;;;;;9.63;7.15;;;;;;;;;;5051422;28;20418;-67
2022/04/14 05:55:37;;;;;;;10.55;7.43;;;;;;;;;;5051028;28;20076;-66
2022/04/14 05:58:04;;;;;;;8.13;6.60;;;;;;;;;;5051300;28;20194;-67
2022/04/14 06:00:33;;;;;;;12.77;7.38;;;;;;;;;;5051258;28;20088;-67
2022/04/14 06:02:59;;;;;;;;;;;;;;;;;;5033201;28;20187;-68
2022/04/14 06:05:29;;;;;;;10.63;7.25;;;;;;;;;;5051018;28;20425;-67
2022/04/14 06:07:55;;;;;;;11.40;8.63;;;;;;;;;;5050959;28;20045;-69
2022/04/14 06:10:21;;;;;;;13.73;7.43;;;;;;;;;;5032812;28;20533;-66
2022/04/14 06:12:47;;;;;;;9.25;7.93;;;;;;;;;;5033141;28;20049;-65
2022/04/14 06:15:13;;;;;;;11.30;7.70;;;;;;;;;;5050289;28;20049;-65
2022/04/14 06:17:42;;;;;;;10.25;7.68;;;;;;;;;;5050445;28;20053;-65
2022/04/14 06:20:08;;;;;;;10.40;7.53;;;;;;;;;;5050772;28;20056;-65
2022/04/14 06:22:41;;;;;;;10.07;7.47;;;;;;;;;;5050951;28;20049;-65
2022/04/14 06:25:12;;;;;;;10.27;7.85;;;;;;;;;;5050702;28;20049;-68
2022/04/14 06:27:42;;;;;;;8.82;6.53;;;;;;;;;;5032556;28;20048;-67
2022/04/14 06:30:08;;;;;;;;;;;;;;;;;;5051229;28;20641;-68
2022/04/14 06:32:34;;;;;;;8.30;6.15;;;;;;;;;;5050694;28;19927;-66
2022/04/14 06:35:00;;;;;;;9.88;7.22;;;;;;;;;;5049413;28;20041;-67
2022/04/14 06:37:27;;;;;;;10.52;7.43;;;;;;;;;;5049043;28;20099;-67
2022/04/14 06:39:53;;;;;;;9.57;6.93;;;;;;;;;;5050128;28;20112;-67
2022/04/14 06:42:22;;;;;;;10.07;7.15;;;;;;;;;;5049952;28;20072;-66
2022/04/14 06:44:48;;;;;;;9.90;7.32;;;;;;;;;;5049526;28;20045;-67
2022/04/14 06:47:14;;;;;;;11.02;7.18;;;;;;;;;;5049734;28;20040;-67
2022/04/14 06:49:40;;;;;;;10.65;7.35;;;;;;;;;;5048586;28;20522;-67
2022/04/14 06:52:06;;;;;;;9.93;7.03;;;;;;;;;;5049536;28;20048;-66
2022/04/14 06:54:32;;;;;;;11.40;7.15;;;;;;;;;;5049924;28;20163;-67
2022/04/14 06:56:58;;;;;;;11.75;7.50;;;;;;;;;;5049861;28;20044;-67
2022/04/14 06:59:24;;;;;;;11.88;7.63;;;;;;;;;;5050047;28;20072;-66
2022/04/14 07:01:50;;;;;;;11.77;7.68;;;;;;;;;;5050237;28;20383;-67
2022/04/14 07:04:16;;;;;;;11.45;7.65;;;;;;;;;;5049896;28;20136;-67
2022/04/14 07:06:42;;;;;;;9.45;7.15;;;;;;;;;;5050055;28;20060;-67
2022/04/14 07:09:08;;;;;;;10.27;7.47;;;;;;;;;;5050160;28;20124;-65
2022/04/14 07:11:34;;;;;;;10.40;7.10;;;;;;;;;;5049646;28;20063;-66
2022/04/14 07:14:00;;;;;;;12.40;7.25;;;;;;;;;;5049616;28;20515;-66
2022/04/14 07:16:26;;;;;;;9.85;7.35;;;;;;;;;;5049409;28;20120;-66
2022/04/14 07:18:52;;;;;;;9.10;7.38;;;;;;;;;;5049146;28;20079;-66
2022/04/14 07:21:18;;;;;;;10.27;7.60;;;;;;;;;;5048168;28;20057;-66
2022/04/14 07:23:44;;;;;;;9.30;7.43;;;;;;;;;;5049261;28;20086;-66
2022/04/14 07:26:10;;;;;;;8.43;7.05;;;;;;;;;;5031169;28;20041;-66
2022/04/14 07:28:36;;;;;;;8.35;7.20;;;;;;;;;;5032153;28;20464;-66
2022/04/14 07:31:03;;;;;;;10.13;7.50;;;;;;;;;;5049373;28;20045;-66
2022/04/14 07:33:29;;;;;;;9.60;7.57;;;;;;;;;;5049528;28;20526;-66
2022/04/14 07:35:55;;;;;;;10.70;7.70;;;;;;;;;;5048427;28;20075;-65
2022/04/14 07:38:21;;;;;;;10.48;7.75;;;;;;;;;;5049695;28;20056;-65
2022/04/14 07:40:47;;;;;;;8.40;7.38;;;;;;;;;;5049517;28;20048;-66
2022/04/14 07:43:13;;;;;;;9.43;7.18;;;;;;;;;;5049061;28;20052;-65
2022/04/14 07:45:42;;;;;;;10.13;6.97;;;;;;;;;;5048888;28;20049;-64
2022/04/14 07:48:09;;;;;;;9.82;7.63;;;;;;;;;;5049233;28;20134;-65
2022/04/14 07:50:35;;;;;;;9.25;7.55;;;;;;;;;;5049150;28;20053;-65
2022/04/14 07:53:01;;;;;;;9.85;7.57;;;;;;;;;;5031384;28;20084;-65
2022/04/14 07:55:28;;;;;;;9.52;8.05;;;;;;;;;;5049120;28;20429;-66
2022/04/14 07:57:56;;;;;;;10.38;7.47;;;;;;;;;;5048445;28;20065;-65
2022/04/14 08:00:23;;;;;;;9.55;7.68;;;;;;;;;;5048391;28;20045;-65
2022/04/14 08:02:55;;;;;;;10.20;7.78;;;;;;;;;;5030547;28;20402;-65
2022/04/14 08:05:23;;;;;;;10.88;8.00;;;;;;;;;;5047992;28;20458;-66
2022/04/14 08:07:49;;;;;;;9.45;7.55;;;;;;;;;;5048380;28;20045;-65
2022/04/14 08:10:15;;;;;;;11.13;8.02;;;;;;;;;;5047907;28;20041;-64
2022/04/14 08:12:41;;;;;;;8.82;7.82;;;;;;;;;;5047596;28;20070;-65
2022/04/14 08:15:07;;;;;;;7.63;5.60;;;;;;;;;;5048014;28;20356;-67
2022/04/14 08:17:33;;;;;;;5.65;4.40;;;;;;;;;;5047859;28;20047;-67
2022/04/14 08:20:00;;;;;;;6.57;4.18;;;;;;;;;;5047966;28;20123;-66
2022/04/14 08:22:26;;;;;;;6.00;4.22;;;;;;;;;;5047550;28;20045;-67
2022/04/14 08:24:52;;;;;;;5.78;4.05;;;;;;;;;;5047586;28;20080;-67
2022/04/14 08:27:18;;;;;;;5.47;4.03;;;;;;;;;;5048103;28;20041;-68
2022/04/14 08:29:44;;;;;;;7.22;4.65;;;;;;;;;;5047669;28;20048;-67
2022/04/14 08:32:10;;;;;;;6.60;3.65;;;;;;;;;;5046912;28;20170;-66
2022/04/14 08:34:37;;;;;;;6.00;4.25;;;;;;;;;;5046869;28;20053;-67
2022/04/14 08:37:03;;;;;;;6.50;4.25;;;;;;;;;;5046940;28;20121;-66
2022/04/14 08:39:30;;;;;;;6.35;4.38;;;;;;;;;;5046305;28;20149;-66
2022/04/14 08:42:01;;;;;;;6.63;4.88;;;;;;;;;;5044844;28;20045;-67
2022/04/14 08:44:30;;;;;;;5.57;4.10;;;;;;;;;;5047075;28;20045;-68
2022/04/14 08:46:57;;;;;;;5.15;3.90;;;;;;;;;;5045565;28;20578;-67
2022/04/14 08:49:24;;;;;;;6.53;3.90;;;;;;;;;;5045612;28;20032;-67
2022/04/14 08:51:50;;;;;;;5.95;3.90;;;;;;;;;;5045976;28;20044;-67
2022/04/14 08:54:18;;;;;;;8.25;4.30;;;;;;;;;;5045588;28;20143;-67
2022/04/14 08:56:46;;;;;;;7.97;4.35;;;;;;;;;;5045882;28;20041;-67
2022/04/14 08:59:13;;;;;;;6.47;3.97;;;;;;;;;;5029197;28;20053;-67
2022/04/14 09:01:39;;;;;;;5.90;4.00;;;;;;;;;;5046601;28;20047;-67
2022/04/14 09:04:05;;;;;;;5.18;3.80;;;;;;;;;;5045247;28;20111;-66
2022/04/14 09:06:32;;;;;;;7.63;4.47;;;;;;;;;;5047078;28;20036;-66
2022/04/14 09:09:00;;;;;;;5.95;4.05;;;;;;;;;;5045863;28;20386;-66
2022/04/14 09:11:27;;;;;;;7.55;3.58;;;;;;;;;;5045897;28;20162;-66
2022/04/14 09:13:54;;;;;;;7.85;4.05;;;;;;;;;;5045727;28;20508;-67
2022/04/14 09:16:20;;;;;;;6.68;3.78;;;;;;;;;;5049680;28;20135;-65
2022/04/14 09:18:47;;;;;;;5.00;3.30;;;;;;;;;;5049380;28;20045;-66
2022/04/14 09:21:14;;;;;;;9.60;3.50;;;;;;;;;;5048726;28;20082;-66
2022/04/14 09:23:40;;;;;;;5.82;3.75;;;;;;;;;;5047610;28;20076;-66
2022/04/14 09:26:11;;;;;;;8.05;3.90;;;;;;;;;;5050430;28;20037;-66
2022/04/14 09:28:37;;;;;;;6.25;3.30;;;;;;;;;;5049038;28;20080;-66
2022/04/14 09:31:04;;;;;;;8.18;3.55;;;;;;;;;;5049813;28;20044;-67
2022/04/14 09:33:33;;;;;;;6.93;3.38;;;;;;;;;;5049934;28;20037;-66
2022/04/14 09:36:08;;;;;;;6.63;3.10;;;;;;;;;;5048872;28;20049;-67
2022/04/14 09:38:55;;;;;;;6.35;3.58;;;;;;;;;;5048756;28;20041;-65
2022/04/14 09:41:33;;;;;;;6.20;3.15;;;;;;;;;;5039810;28;20525;-69
2022/04/14 09:44:04;;;;;;;6.68;3.70;;;;;;;;;;5050645;28;20114;-67
2022/04/14 09:46:30;;;;;;;5.82;3.45;;;;;;;;;;5048515;28;20124;-67
2022/04/14 09:49:15;;;;;;;6.68;3.53;;;;;;;;;;5049184;28;20103;-68
2022/04/14 09:51:42;;;;;;;5.93;3.50;;;;;;;;;;5049449;28;20043;-67
2022/04/14 09:54:12;;;;;;;7.22;3.47;;;;;;;;;;5049596;28;20041;-67
2022/04/14 09:56:42;;;;;;;5.20;2.97;;;;;;;;;;5048174;28;20087;-66
2022/04/14 09:59:08;;;;;;;4.78;3.28;;;;;;;;;;5046380;28;20053;-67
2022/04/14 10:01:34;;;;;;;5.57;3.20;;;;;;;;;;5049174;28;20040;-68
2022/04/14 10:04:01;;;;;;;5.78;3.20;;;;;;;;;;5032075;28;20060;-68
2022/04/14 10:06:27;;;;;;;6.07;4.07;;;;;;;;;;5032946;28;20053;-68
2022/04/14 10:08:53;;;;;;;8.10;3.97;;;;;;;;;;5050265;28;20455;-67
2022/04/14 10:11:25;;;;;;;7.43;4.38;;;;;;;;;;5049671;28;20048;-68
2022/04/14 10:13:51;;;;;;;6.40;4.38;;;;;;;;;;5049554;28;20136;-69
2022/04/14 10:16:20;;;;;;;7.85;4.25;;;;;;;;;;5049313;28;20127;-69
2022/04/14 10:18:47;;;;;;;7.35;4.15;;;;;;;;;;5047170;28;20045;-69
2022/04/14 10:21:14;;;;;;;6.88;4.18;;;;;;;;;;5049289;28;20426;-69
2022/04/14 10:23:41;;;;;;;6.82;4.22;;;;;;;;;;5048132;28;20596;-68
2022/04/14 10:26:08;;;;;;;5.50;3.95;;;;;;;;;;5049001;28;20041;-69
2022/04/14 10:28:35;;;;;;;5.88;3.80;;;;;;;;;;5048668;28;20128;-68
2022/04/14 10:31:01;;;;;;;5.50;4.00;;;;;;;;;;5048665;28;20052;-68
2022/04/14 10:33:28;;;;;;;7.40;4.03;;;;;;;;;;5048646;28;20503;-69
2022/04/14 10:35:55;;;;;;;6.43;3.90;;;;;;;;;;5048782;28;20057;-68
2022/04/14 10:38:31;;;;;;;7.22;4.03;;;;;;;;;;5049155;28;20098;-68
2022/04/14 10:41:00;;;;;;;6.10;4.50;;;;;;;;;;5028248;28;20550;-69
2022/04/14 10:43:26;;;;;;;6.60;4.05;;;;;;;;;;5048214;28;20041;-69
2022/04/14 10:45:56;;;;;;;7.40;4.32;;;;;;;;;;5048306;28;20041;-69
2022/04/14 10:48:32;;;;;;;6.15;4.20;;;;;;;;;;5046548;28;20163;-68
2022/04/14 10:51:17;;;;;;;7.60;4.63;;;;;;;;;;5048716;28;20476;-69
2022/04/14 10:53:52;;;;;;;8.63;5.43;;;;;;;;;;5049260;28;20043;-69
2022/04/14 10:56:37;;;;;;;8.48;5.60;;;;;;;;;;5051316;28;20053;-69
2022/04/14 10:59:11;;;;;;;8.05;5.53;;;;;;;;;;5055687;28;20049;-68
2022/04/14 11:01:46;;;;;;;7.55;5.55;;;;;;;;;;5054057;28;20060;-69
2022/04/14 11:04:22;;;;;;;9.82;6.45;;;;;;;;;;5048494;28;20155;-68
2022/04/14 11:06:50;;;;;;;11.10;7.65;;;;;;;;;;5047102;28;20048;-68
2022/04/14 11:09:35;;;;;;;10.77;7.60;;;;;;;;;;5049187;28;20057;-69
2022/04/14 11:12:02;;;;;;;9.90;7.35;;;;;;;;;;5048173;28;20060;-68
2022/04/14 11:14:28;;;;;;;11.02;7.70;;;;;;;;;;5048433;28;20033;-69
2022/04/14 11:16:54;;;;;;;10.45;7.80;;;;;;;;;;5030253;28;20045;-70
2022/04/14 11:19:24;;;;;;;10.43;7.38;;;;;;;;;;5048178;28;20079;-68
2022/04/14 11:21:56;;;;;;;10.13;7.25;;;;;;;;;;5047703;28;20049;-69
2022/04/14 11:24:34;;;;;;;10.95;8.52;;;;;;;;;;5048189;28;20060;-70
2022/04/14 11:27:26;;;;;;;10.48;8.23;;;;;;;;;;5048042;28;20120;-70
2022/04/14 11:29:57;;;;;;;11.05;7.18;;;;;;;;;;5047996;28;21063;-69
2022/04/14 11:32:40;;;;;;;11.05;7.93;;;;;;;;;;5045906;28;20128;-68
2022/04/14 11:35:13;;;;;;;11.10;7.13;;;;;;;;;;5046151;28;20048;-68
2022/04/14 11:37:49;;;;;;;10.50;6.85;;;;;;;;;;5046254;28;20053;-68
2022/04/14 11:40:18;;;;;;;12.25;7.45;;;;;;;;;;5047128;28;20045;-68
2022/04/14 11:42:48;;;;;;;9.63;6.35;;;;;;;;;;5044214;28;20036;-69
2022/04/14 11:45:14;;;;;;;9.52;6.82;;;;;;;;;;5047158;28;20049;-68
2022/04/14 11:47:41;;;;;;;11.90;6.75;;;;;;;;;;5046223;28;20047;-68
2022/04/14 11:50:07;;;;;;;9.15;6.22;;;;;;;;;;5046025;28;20053;-66
2022/04/14 11:52:34;;;;;;;15.07;6.88;;;;;;;;;;5047606;28;20044;-66
2022/04/14 11:55:00;;;;;;;11.10;6.85;;;;;;;;;;5047544;28;20337;-66
2022/04/14 11:57:29;;;;;;;9.80;5.40;;;;;;;;;;5029525;28;20047;-66
2022/04/14 12:00:08;;;;;;;9.73;6.30;;;;;;;;;;5045534;28;20052;-66
2022/04/14 12:02:35;;;;;;;8.93;5.32;;;;;;;;;;5047567;28;20098;-66
2022/04/14 12:05:01;;;;;;;8.65;5.35;;;;;;;;;;5047319;28;20159;-66
2022/04/14 12:07:31;;;;;;;7.32;4.90;;;;;;;;;;5047266;28;20048;-66
2022/04/14 12:09:59;;;;;;;9.88;5.03;;;;;;;;;;5045351;28;20495;-66
2022/04/14 12:12:25;;;;;;;9.50;5.22;;;;;;;;;;5013077;28;20032;-66
2022/04/14 12:14:52;;;;;;;8.18;4.68;;;;;;;;;;5029191;28;20041;-66
2022/04/14 12:17:22;;;;;;;11.15;4.32;;;;;;;;;;5047039;28;20041;-66
2022/04/14 12:19:55;;;;;;;8.60;4.93;;;;;;;;;;5047341;28;20140;-66
2022/04/14 12:22:23;;;;;;;6.85;3.92;;;;;;;;;;5047255;28;20407;-66
2022/04/14 12:24:54;;;;;;;8.45;4.70;;;;;;;;;;5047070;28;20048;-66
2022/04/14 12:27:23;;;;;;;6.53;3.65;;;;;;;;;;5046048;28;20048;-67
2022/04/14 12:29:51;;;;;;;9.25;3.97;;;;;;;;;;5044850;28;20127;-67
2022/04/14 12:32:18;;;;;;;7.68;4.65;;;;;;;;;;5047123;28;20037;-67
2022/04/14 12:34:45;;;;;;;8.55;4.55;;;;;;;;;;5046277;28;20049;-67
2022/04/14 12:37:18;;;;;;;8.80;4.65;;;;;;;;;;5045067;28;20060;-67
2022/04/14 12:40:03;;;;;;;5.15;3.28;;;;;;;;;;5028257;28;20049;-68
2022/04/14 12:42:35;;;;;;;8.38;3.72;;;;;;;;;;5046301;28;20048;-68
2022/04/14 12:45:12;;;;;;;7.47;3.70;;;;;;;;;;5029126;28;20053;-68
2022/04/14 12:47:41;;;;;;;7.80;4.07;;;;;;;;;;5046599;28;20049;-67
2022/04/14 12:50:07;;;;;;;6.20;3.70;;;;;;;;;;5046151;28;20051;-67
2022/04/14 12:52:33;;;;;;;5.10;3.63;;;;;;;;;;5047428;28;20399;-69
2022/04/14 12:54:59;;;;;;;8.48;4.28;;;;;;;;;;5045259;28;20068;-69
2022/04/14 12:57:30;;;;;;;7.18;4.68;;;;;;;;;;5046864;28;20450;-69
2022/04/14 13:00:02;;;;;;;9.13;4.63;;;;;;;;;;5047178;28;20095;-69
2022/04/14 13:02:28;;;;;;;8.45;4.53;;;;;;;;;;5046480;28;20059;-65
2022/04/14 13:05:05;;;;;;;10.30;4.47;;;;;;;;;;5046259;28;20041;-68
2022/04/14 13:07:43;;;;;;;8.93;4.85;;;;;;;;;;5048300;28;20076;-68
2022/04/14 13:10:09;;;;;;;8.32;4.85;;;;;;;;;;5047862;28;20425;-68
2022/04/14 13:12:38;;;;;;;11.02;5.05;;;;;;;;;;5048423;28;20045;-68
2022/04/14 13:15:05;;;;;;;10.25;4.97;;;;;;;;;;5048185;28;20045;-68
2022/04/14 13:17:36;;;;;;;8.32;5.30;;;;;;;;;;5047516;28;20045;-67
2022/04/14 13:20:09;;;;;;;6.63;4.88;;;;;;;;;;5048082;28;20053;-68
2022/04/14 13:22:36;;;;;;;9.82;4.93;;;;;;;;;;5048032;28;20161;-68
2022/04/14 13:25:03;;;;;;;6.72;4.70;;;;;;;;;;5047919;28;20467;-67
2022/04/14 13:27:29;;;;;;;7.65;4.85;;;;;;;;;;5047921;28;20442;-68
2022/04/14 13:29:55;;;;;;;8.27;4.85;;;;;;;;;;5047124;28;20503;-68
2022/04/14 13:32:21;;;;;;;10.55;4.85;;;;;;;;;;5048301;28;20044;-68
2022/04/14 13:34:47;;;;;;;7.45;4.50;;;;;;;;;;5047640;28;20041;-68
2022/04/14 13:37:13;;;;;;;8.25;4.43;;;;;;;;;;5047845;28;20210;-68
2022/04/14 13:39:39;;;;;;;7.82;4.53;;;;;;;;;;5048158;28;20132;-68
2022/04/14 13:42:06;;;;;;;8.73;4.75;;;;;;;;;;5048495;28;20055;-68
2022/04/14 13:44:32;;;;;;;6.32;4.30;;;;;;;;;;5047816;28;20515;-67
2022/04/14 13:46:59;;;;;;;7.55;4.72;;;;;;;;;;5047788;28;20076;-68
2022/04/14 13:49:25;;;;;;;7.22;4.20;;;;;;;;;;5048063;28;20111;-68
2022/04/14 13:51:52;;;;;;;6.22;4.30;;;;;;;;;;5049359;28;20060;-68
2022/04/14 13:54:18;;;;;;;7.65;4.15;;;;;;;;;;5050226;28;20111;-68
2022/04/14 13:56:44;;;;;;;8.25;4.63;;;;;;;;;;5047833;28;20049;-68
2022/04/14 13:59:10;;;;;;;7.03;3.85;;;;;;;;;;5049198;28;20075;-68
2022/04/14 14:01:37;;;;;;;8.02;4.20;;;;;;;;;;5051472;28;20132;-70
2022/04/14 14:04:04;;;;;;;9.70;4.38;;;;;;;;;;5032989;28;20511;-67
2022/04/14 14:06:30;;;;;;;7.18;4.03;;;;;;;;;;5050812;28;20036;-67
2022/04/14 14:08:56;;;;;;;5.55;3.53;;;;;;;;;;5051026;28;20471;-67
2022/04/14 14:11:23;;;;;;;6.20;3.50;;;;;;;;;;5051324;28;20136;-68
2022/04/14 14:13:50;;;;;;;6.82;3.80;;;;;;;;;;5050940;28;20045;-68
2022/04/14 14:16:16;;;;;;;5.93;3.40;;;;;;;;;;5051054;28;20135;-68
2022/04/14 14:18:43;;;;;;;5.50;3.33;;;;;;;;;;5051167;28;20048;-68
2022/04/14 14:21:10;;;;;;;5.78;2.97;;;;;;;;;;5050174;28;20052;-68
2022/04/14 14:23:36;;;;;;;5.13;3.00;;;;;;;;;;5051106;28;20053;-68
2022/04/14 14:26:02;;;;;;;5.03;3.03;;;;;;;;;;5050948;28;20041;-68
2022/04/14 14:28:28;;;;;;;7.03;2.97;;;;;;;;;;5050558;28;20136;-68
2022/04/14 14:30:55;;;;;;;5.00;3.13;;;;;;;;;;5050135;28;20379;-67
2022/04/14 14:33:21;;;;;;;5.68;3.33;;;;;;;;;;5050612;28;20113;-67
2022/04/14 14:35:47;;;;;;;4.40;2.88;;;;;;;;;;5049724;28;20071;-68
2022/04/14 14:38:15;;;;;;;4.70;2.78;;;;;;;;;;5048945;28;20416;-70
2022/04/14 14:40:41;;;;;;;5.25;3.17;;;;;;;;;;5050759;28;20400;-69
2022/04/14 14:43:07;;;;;;;5.22;2.92;;;;;;;;;;5049796;28;20128;-67